createdAt,value
2023-12-23T00:00:11.134Z,76.34
2023-12-23T00:01:11.126Z,76.27
2023-12-23T00:02:11.125Z,76.36
2023-12-23T00:03:11.149Z,76.29
2023-12-23T00:04:11.094Z,76.22
2023-12-23T00:05:11.183Z,76.29
2023-12-23T00:06:11.300Z,76.45
2023-12-23T00:07:11.081Z,76.56
2023-12-23T00:08:11.163Z,76.54
2023-12-23T00:09:11.082Z,76.76
2023-12-23T00:10:11.165Z,76.98
2023-12-23T00:11:11.149Z,77.00
2023-12-23T00:12:11.119Z,77.13
2023-12-23T00:13:11.083Z,77.32
2023-12-23T00:14:11.117Z,77.46
2023-12-23T00:15:11.082Z,77.66
2023-12-23T00:16:11.119Z,77.86
2023-12-23T00:17:11.356Z,77.79
2023-12-23T00:18:11.307Z,77.65
2023-12-23T00:19:11.257Z,77.63
2023-12-23T00:20:11.218Z,77.63
2023-12-23T00:21:11.181Z,77.69
2023-12-23T00:22:11.082Z,77.91
2023-12-23T00:23:11.101Z,77.80
2023-12-23T00:24:11.104Z,77.78
2023-12-23T00:25:11.091Z,78.06
2023-12-23T00:26:11.243Z,78.23
2023-12-23T00:27:11.088Z,78.04
2023-12-23T00:28:11.086Z,78.05
2023-12-23T00:29:11.166Z,78.00
2023-12-23T00:30:11.112Z,78.09
2023-12-23T00:31:11.081Z,78.08
2023-12-23T00:32:11.102Z,78.33
2023-12-23T00:33:11.132Z,78.51
2023-12-23T00:34:11.078Z,78.64
2023-12-23T00:35:11.158Z,78.77
2023-12-23T00:36:11.068Z,78.91
2023-12-23T00:37:11.100Z,79.02
2023-12-23T00:38:11.100Z,78.96
2023-12-23T00:39:11.070Z,78.93
2023-12-23T00:40:11.070Z,78.88
2023-12-23T00:41:11.142Z,78.83
2023-12-23T00:42:11.070Z,78.73
2023-12-23T00:43:11.068Z,78.84
2023-12-23T00:44:11.133Z,78.80
2023-12-23T00:45:11.065Z,78.90
2023-12-23T00:46:11.079Z,79.19
2023-12-23T00:47:11.220Z,79.18
2023-12-23T00:48:11.084Z,79.63
2023-12-23T00:49:11.082Z,79.62
2023-12-23T00:50:11.124Z,79.59
2023-12-23T00:51:11.080Z,79.56
2023-12-23T00:52:11.071Z,79.70
2023-12-23T00:53:11.122Z,79.80
2023-12-23T00:54:11.065Z,79.87
2023-12-23T00:55:11.066Z,79.87
2023-12-23T00:56:11.140Z,79.93
2023-12-23T00:57:11.068Z,79.87
2023-12-23T00:58:11.068Z,79.93
2023-12-23T00:59:11.106Z,80.09
2023-12-23T01:00:11.068Z,79.98
2023-12-23T01:01:11.109Z,80.23
2023-12-23T01:02:11.152Z,80.36
2023-12-23T01:03:11.114Z,80.41
2023-12-23T01:04:11.086Z,80.34
2023-12-23T01:05:11.148Z,80.54
2023-12-23T01:06:11.100Z,80.71
2023-12-23T01:07:11.068Z,80.89
2023-12-23T01:08:11.114Z,81.07
2023-12-23T01:09:11.069Z,81.03
2023-12-23T01:10:11.095Z,80.93
2023-12-23T01:11:11.155Z,80.93
2023-12-23T01:12:11.069Z,81.18
2023-12-23T01:13:11.069Z,81.41
2023-12-23T01:14:11.155Z,81.55
2023-12-23T01:15:11.083Z,81.80
2023-12-23T01:16:11.067Z,82.03
2023-12-23T01:17:11.095Z,82.21
2023-12-23T01:18:11.167Z,82.38
2023-12-23T01:19:11.192Z,82.33
2023-12-23T01:20:11.105Z,82.42
2023-12-23T01:21:11.066Z,82.71
2023-12-23T01:22:11.071Z,82.88
2023-12-23T01:23:11.154Z,82.93
2023-12-23T01:24:11.071Z,83.30
2023-12-23T01:25:11.068Z,83.29
2023-12-23T01:26:11.108Z,83.47
2023-12-23T01:27:11.080Z,83.36
2023-12-23T01:28:11.075Z,83.37
2023-12-23T01:29:11.139Z,83.30
2023-12-23T01:30:11.105Z,83.53
2023-12-23T01:31:11.092Z,83.47
2023-12-23T01:32:11.155Z,83.86
2023-12-23T01:33:11.182Z,84.02
2023-12-23T01:34:11.076Z,83.82
2023-12-23T01:35:11.121Z,83.91
2023-12-23T01:36:11.071Z,83.91
2023-12-23T01:37:11.072Z,83.65
2023-12-23T01:38:11.066Z,83.47
2023-12-23T01:39:11.078Z,83.38
2023-12-23T01:40:11.093Z,83.36
2023-12-23T01:41:11.091Z,83.31
2023-12-23T01:42:11.073Z,83.34
2023-12-23T01:43:11.076Z,83.35
2023-12-23T01:44:11.102Z,83.28
2023-12-23T01:45:11.076Z,83.28
2023-12-23T01:46:11.078Z,83.30
2023-12-23T01:47:11.118Z,83.32
2023-12-23T01:48:12.162Z,83.27
2023-12-23T01:49:11.147Z,83.14
2023-12-23T01:50:11.103Z,82.92
2023-12-23T01:51:11.084Z,82.84
2023-12-23T01:52:11.075Z,82.72
2023-12-23T01:53:11.130Z,82.68
2023-12-23T01:54:11.084Z,82.61
2023-12-23T01:55:11.076Z,82.45
2023-12-23T01:56:11.122Z,82.30
2023-12-23T01:57:11.081Z,82.17
2023-12-23T01:58:11.073Z,82.10
2023-12-23T01:59:11.126Z,82.05
2023-12-23T02:00:11.087Z,82.14
2023-12-23T02:01:11.152Z,81.97
2023-12-23T02:02:11.142Z,81.82
2023-12-23T02:03:11.157Z,81.63
2023-12-23T02:04:11.071Z,81.57
2023-12-23T02:05:11.175Z,81.39
2023-12-23T02:06:11.171Z,81.30
2023-12-23T02:07:11.071Z,81.23
2023-12-23T02:08:11.088Z,81.10
2023-12-23T02:09:11.074Z,80.96
2023-12-23T02:10:11.081Z,80.81
2023-12-23T02:11:16.140Z,80.78
2023-12-23T02:12:18.077Z,80.58
2023-12-23T02:13:22.090Z,80.56
2023-12-23T02:14:18.132Z,80.47
2023-12-23T02:15:15.202Z,80.29
2023-12-23T02:16:11.081Z,80.04
2023-12-23T02:17:11.155Z,79.86
2023-12-23T02:18:11.367Z,79.94
2023-12-23T02:19:11.165Z,79.83
2023-12-23T02:20:11.137Z,79.70
2023-12-23T02:21:11.083Z,79.52
2023-12-23T02:22:11.097Z,79.48
2023-12-23T02:23:11.093Z,79.42
2023-12-23T02:24:11.093Z,79.35
2023-12-23T02:25:11.088Z,79.26
2023-12-23T02:26:11.135Z,79.30
2023-12-23T02:27:13.082Z,79.21
2023-12-23T02:28:11.076Z,79.08
2023-12-23T02:29:11.119Z,79.02
2023-12-23T02:30:11.115Z,78.96
2023-12-23T02:31:11.080Z,78.88
2023-12-23T02:32:11.145Z,78.80
2023-12-23T02:33:11.168Z,78.81
2023-12-23T02:34:11.180Z,78.78
2023-12-23T02:35:11.136Z,78.65
2023-12-23T02:36:11.083Z,78.60
2023-12-23T02:37:11.079Z,78.67
2023-12-23T02:38:11.134Z,78.58
2023-12-23T02:39:13.673Z,78.48
2023-12-23T02:40:11.080Z,78.67
2023-12-23T02:41:11.124Z,78.58
2023-12-23T02:42:11.078Z,78.61
2023-12-23T02:43:11.092Z,78.54
2023-12-23T02:44:11.141Z,78.59
2023-12-23T02:45:11.087Z,78.58
2023-12-23T02:46:11.111Z,78.53
2023-12-23T02:47:11.133Z,78.47
2023-12-23T02:48:11.164Z,78.50
2023-12-23T02:49:11.136Z,78.50
2023-12-23T02:50:11.105Z,78.45
2023-12-23T02:51:11.081Z,78.43
2023-12-23T02:52:11.080Z,78.49
2023-12-23T02:53:12.185Z,78.54
2023-12-23T02:54:11.084Z,78.47
2023-12-23T02:55:11.076Z,78.59
2023-12-23T02:56:11.079Z,78.58
2023-12-23T02:57:11.085Z,78.52
2023-12-23T02:58:11.077Z,78.45
2023-12-23T02:59:11.107Z,78.58
2023-12-23T03:00:11.085Z,78.63
2023-12-23T03:01:13.144Z,78.57
2023-12-23T03:02:11.123Z,78.52
2023-12-23T03:03:11.118Z,78.45
2023-12-23T03:04:11.072Z,78.44
2023-12-23T03:05:11.143Z,78.36
2023-12-23T03:06:14.179Z,78.32
2023-12-23T03:07:11.087Z,78.31
2023-12-23T03:08:11.118Z,78.43
2023-12-23T03:09:11.085Z,78.45
2023-12-23T03:10:11.087Z,78.47
2023-12-23T03:11:11.107Z,78.44
2023-12-23T03:12:11.091Z,78.48
2023-12-23T03:13:11.079Z,78.45
2023-12-23T03:14:11.104Z,78.47
2023-12-23T03:15:11.086Z,78.51
2023-12-23T03:16:15.077Z,78.47
2023-12-23T03:17:11.125Z,78.55
2023-12-23T03:18:11.133Z,78.58
2023-12-23T03:19:11.136Z,78.61
2023-12-23T03:20:11.164Z,78.54
2023-12-23T03:21:11.082Z,78.59
2023-12-23T03:22:11.080Z,78.53
2023-12-23T03:23:11.097Z,78.56
2023-12-23T03:24:11.081Z,78.63
2023-12-23T03:25:11.079Z,78.68
2023-12-23T03:26:11.120Z,78.55
2023-12-23T03:27:11.082Z,78.50
2023-12-23T03:28:11.124Z,78.44
2023-12-23T03:29:13.136Z,78.37
2023-12-23T03:30:11.136Z,78.21
2023-12-23T03:31:11.051Z,78.15
2023-12-23T03:32:11.141Z,78.03
2023-12-23T03:33:11.159Z,78.05
2023-12-23T03:34:11.131Z,77.91
2023-12-23T03:35:11.104Z,77.73
2023-12-23T03:36:11.062Z,77.66
2023-12-23T03:37:11.055Z,77.49
2023-12-23T03:38:11.077Z,77.56
2023-12-23T03:39:11.062Z,77.45
2023-12-23T03:40:12.073Z,77.41
2023-12-23T03:41:12.097Z,77.22
2023-12-23T03:42:11.062Z,77.17
2023-12-23T03:43:11.053Z,76.85
2023-12-23T03:44:11.091Z,76.62
2023-12-23T03:45:11.060Z,76.67
2023-12-23T03:46:11.050Z,76.49
2023-12-23T03:47:11.115Z,76.54
2023-12-23T03:48:11.119Z,76.42
2023-12-23T03:49:11.124Z,76.46
2023-12-23T03:50:11.258Z,76.46
2023-12-23T03:51:11.066Z,76.46
2023-12-23T03:52:11.060Z,76.41
2023-12-23T03:53:11.127Z,76.45
2023-12-23T03:54:11.056Z,76.56
2023-12-23T03:55:11.069Z,76.59
2023-12-23T03:56:11.093Z,76.97
2023-12-23T03:57:11.061Z,77.12
2023-12-23T03:58:11.136Z,77.21
2023-12-23T03:59:11.144Z,77.44
2023-12-23T04:00:11.070Z,77.92
2023-12-23T04:01:11.085Z,77.82
2023-12-23T04:02:11.141Z,78.13
2023-12-23T04:03:11.065Z,78.25
2023-12-23T04:04:11.066Z,78.43
2023-12-23T04:05:11.129Z,78.44
2023-12-23T04:06:11.108Z,78.47
2023-12-23T04:07:11.072Z,78.58
2023-12-23T04:08:11.147Z,78.88
2023-12-23T04:09:11.074Z,79.02
2023-12-23T04:10:11.080Z,79.20
2023-12-23T04:11:11.109Z,79.53
2023-12-23T04:12:11.069Z,79.51
2023-12-23T04:13:11.065Z,79.44
2023-12-23T04:14:11.122Z,79.51
2023-12-23T04:15:11.082Z,79.54
2023-12-23T04:16:13.601Z,79.68
2023-12-23T04:17:11.102Z,79.62
2023-12-23T04:18:11.135Z,79.86
2023-12-23T04:19:11.162Z,80.11
2023-12-23T04:20:11.107Z,80.08
2023-12-23T04:21:14.068Z,80.32
2023-12-23T04:22:11.081Z,80.40
2023-12-23T04:23:11.109Z,80.39
2023-12-23T04:24:11.085Z,80.61
2023-12-23T04:25:11.082Z,80.59
2023-12-23T04:26:11.124Z,80.62
2023-12-23T04:27:11.073Z,80.72
2023-12-23T04:28:11.078Z,80.72
2023-12-23T04:29:11.100Z,81.27
2023-12-23T04:30:11.102Z,81.26
2023-12-23T04:31:11.244Z,81.24
2023-12-23T04:32:11.101Z,81.32
2023-12-23T04:33:11.190Z,81.38
2023-12-23T04:34:11.176Z,81.66
2023-12-23T04:35:11.126Z,81.83
2023-12-23T04:36:11.070Z,82.01
2023-12-23T04:37:11.071Z,82.22
2023-12-23T04:38:11.119Z,82.50
2023-12-23T04:39:11.067Z,82.74
2023-12-23T04:40:11.072Z,82.80
2023-12-23T04:41:11.110Z,83.18
2023-12-23T04:42:11.069Z,83.10
2023-12-23T04:43:11.074Z,83.05
2023-12-23T04:44:11.089Z,83.09
2023-12-23T04:45:11.110Z,83.22
2023-12-23T04:46:11.075Z,83.63
2023-12-23T04:47:11.116Z,83.45
2023-12-23T04:48:11.230Z,83.78
2023-12-23T04:49:11.080Z,83.85
2023-12-23T04:50:11.124Z,84.42
2023-12-23T04:51:11.074Z,84.72
2023-12-23T04:52:11.102Z,84.99
2023-12-23T04:53:11.125Z,85.40
2023-12-23T04:54:11.066Z,85.61
2023-12-23T04:55:11.158Z,85.65
2023-12-23T04:56:11.089Z,85.66
2023-12-23T04:57:11.075Z,86.38
2023-12-23T04:58:11.080Z,86.79
2023-12-23T04:59:11.073Z,86.67
2023-12-23T05:00:11.074Z,86.50
2023-12-23T05:01:11.087Z,86.33
2023-12-23T05:02:11.106Z,86.54
2023-12-23T05:03:11.110Z,86.42
2023-12-23T05:04:11.070Z,86.19
2023-12-23T05:05:11.161Z,86.12
2023-12-23T05:06:11.118Z,85.99
2023-12-23T05:07:11.076Z,85.94
2023-12-23T05:08:11.106Z,85.73
2023-12-23T05:09:11.093Z,85.47
2023-12-23T05:10:11.068Z,85.22
2023-12-23T05:11:11.140Z,85.09
2023-12-23T05:12:11.067Z,84.82
2023-12-23T05:13:11.070Z,84.58
2023-12-23T05:14:11.146Z,84.50
2023-12-23T05:15:11.072Z,84.19
2023-12-23T05:16:11.080Z,84.12
2023-12-23T05:17:11.101Z,84.03
2023-12-23T05:18:11.141Z,83.94
2023-12-23T05:19:11.222Z,84.08
2023-12-23T05:20:11.153Z,84.02
2023-12-23T05:21:11.072Z,84.03
2023-12-23T05:22:11.074Z,84.14
2023-12-23T05:23:11.122Z,84.13
2023-12-23T05:24:11.076Z,84.10
2023-12-23T05:25:11.069Z,84.20
2023-12-23T05:26:11.098Z,84.25
2023-12-23T05:27:11.069Z,84.08
2023-12-23T05:28:11.072Z,84.18
2023-12-23T05:29:11.139Z,83.90
2023-12-23T05:30:11.153Z,83.87
2023-12-23T05:31:11.069Z,83.65
2023-12-23T05:32:11.114Z,83.59
2023-12-23T05:33:11.122Z,83.54
2023-12-23T05:34:11.126Z,83.55
2023-12-23T05:35:11.112Z,83.54
2023-12-23T05:36:11.071Z,83.18
2023-12-23T05:37:11.073Z,83.21
2023-12-23T05:38:11.124Z,83.11
2023-12-23T05:39:11.076Z,83.06
2023-12-23T05:40:11.073Z,82.96
2023-12-23T05:41:11.116Z,82.94
2023-12-23T05:42:11.079Z,82.93
2023-12-23T05:43:11.078Z,82.84
2023-12-23T05:44:11.112Z,82.84
2023-12-23T05:45:11.138Z,82.63
2023-12-23T05:46:11.214Z,82.45
2023-12-23T05:47:11.110Z,82.42
2023-12-23T05:48:11.232Z,82.23
2023-12-23T05:49:11.144Z,82.18
2023-12-23T05:50:11.127Z,82.26
2023-12-23T05:51:11.091Z,82.04
2023-12-23T05:52:11.082Z,82.04
2023-12-23T05:53:11.104Z,82.02
2023-12-23T05:54:11.091Z,81.84
2023-12-23T05:55:11.127Z,81.60
2023-12-23T05:56:11.166Z,80.73
2023-12-23T05:57:11.079Z,80.45
2023-12-23T05:58:11.089Z,80.50
2023-12-23T05:59:11.105Z,80.16
2023-12-23T06:00:13.307Z,80.10
2023-12-23T06:01:11.115Z,80.12
2023-12-23T06:02:11.146Z,80.01
2023-12-23T06:03:11.121Z,80.07
2023-12-23T06:04:11.089Z,79.96
2023-12-23T06:05:11.105Z,79.78
2023-12-23T06:06:11.088Z,79.73
2023-12-23T06:07:11.083Z,79.58
2023-12-23T06:08:11.116Z,79.25
2023-12-23T06:09:11.076Z,79.03
2023-12-23T06:10:11.078Z,78.84
2023-12-23T06:11:12.134Z,78.57
2023-12-23T06:12:11.076Z,78.93
2023-12-23T06:13:11.083Z,78.74
2023-12-23T06:14:11.152Z,78.69
2023-12-23T06:15:11.101Z,78.41
2023-12-23T06:16:11.083Z,78.13
2023-12-23T06:17:11.155Z,78.08
2023-12-23T06:18:11.155Z,78.03
2023-12-23T06:19:11.214Z,77.72
2023-12-23T06:20:11.200Z,77.76
2023-12-23T06:21:11.076Z,77.68
2023-12-23T06:22:11.078Z,77.60
2023-12-23T06:23:11.120Z,77.73
2023-12-23T06:24:11.075Z,77.80
2023-12-23T06:25:11.085Z,77.46
2023-12-23T06:26:12.146Z,77.73
2023-12-23T06:27:11.077Z,77.70
2023-12-23T06:28:11.084Z,77.54
2023-12-23T06:29:11.169Z,77.62
2023-12-23T06:30:11.109Z,77.43
2023-12-23T06:31:11.061Z,77.56
2023-12-23T06:32:11.108Z,77.35
2023-12-23T06:33:11.123Z,77.35
2023-12-23T06:34:11.162Z,77.23
2023-12-23T06:35:11.109Z,77.14
2023-12-23T06:36:11.062Z,77.31
2023-12-23T06:37:11.062Z,77.36
2023-12-23T06:38:11.122Z,77.31
2023-12-23T06:39:11.083Z,77.21
2023-12-23T06:40:11.075Z,77.10
2023-12-23T06:41:11.108Z,77.10
2023-12-23T06:42:11.066Z,77.04
2023-12-23T06:43:43.787Z,76.84
2023-12-23T06:44:13.148Z,76.84
2023-12-23T06:45:11.075Z,77.04
2023-12-23T06:46:12.071Z,76.88
2023-12-23T06:47:11.110Z,76.87
2023-12-23T06:48:11.182Z,76.72
2023-12-23T06:49:11.163Z,76.59
2023-12-23T06:50:11.309Z,76.73
2023-12-23T06:51:11.070Z,76.70
2023-12-23T06:52:11.070Z,76.64
2023-12-23T06:53:11.087Z,76.54
2023-12-23T06:54:11.076Z,76.56
2023-12-23T06:55:11.067Z,76.75
2023-12-23T06:56:11.104Z,76.60
2023-12-23T06:57:11.077Z,76.59
2023-12-23T06:58:11.069Z,76.82
2023-12-23T06:59:14.265Z,76.64
2023-12-23T07:00:11.077Z,76.51
2023-12-23T07:01:11.120Z,76.56
2023-12-23T07:02:11.103Z,76.52
2023-12-23T07:03:11.084Z,76.41
2023-12-23T07:04:11.100Z,76.41
2023-12-23T07:05:11.193Z,76.36
2023-12-23T07:06:13.228Z,76.49
2023-12-23T07:07:11.068Z,76.45
2023-12-23T07:08:11.115Z,76.34
2023-12-23T07:09:11.073Z,76.35
2023-12-23T07:10:11.071Z,76.40
2023-12-23T07:11:12.275Z,76.54
2023-12-23T07:12:11.105Z,76.47
2023-12-23T07:13:11.075Z,76.56
2023-12-23T07:14:11.099Z,76.78
2023-12-23T07:15:11.069Z,77.02
2023-12-23T07:16:11.072Z,77.17
2023-12-23T07:17:11.139Z,77.15
2023-12-23T07:18:11.112Z,77.35
2023-12-23T07:19:11.071Z,77.52
2023-12-23T07:20:11.221Z,77.96
2023-12-23T07:21:11.085Z,78.09
2023-12-23T07:22:11.080Z,78.20
2023-12-23T07:23:11.217Z,78.29
2023-12-23T07:24:11.066Z,78.39
2023-12-23T07:25:11.069Z,78.69
2023-12-23T07:26:12.101Z,78.93
2023-12-23T07:27:11.068Z,79.08
2023-12-23T07:28:11.063Z,79.03
2023-12-23T07:29:11.103Z,79.20
2023-12-23T07:30:11.170Z,79.37
2023-12-23T07:31:11.068Z,79.32
2023-12-23T07:32:11.108Z,79.24
2023-12-23T07:33:11.168Z,79.28
2023-12-23T07:34:11.142Z,79.41
2023-12-23T07:35:11.126Z,79.48
2023-12-23T07:36:11.069Z,79.36
2023-12-23T07:37:12.062Z,79.34
2023-12-23T07:38:11.112Z,79.37
2023-12-23T07:39:11.071Z,79.22
2023-12-23T07:40:11.074Z,79.13
2023-12-23T07:41:11.104Z,78.88
2023-12-23T07:42:11.074Z,78.62
2023-12-23T07:43:11.069Z,78.63
2023-12-23T07:44:11.145Z,78.62
2023-12-23T07:45:11.074Z,78.48
2023-12-23T07:46:11.074Z,78.31
2023-12-23T07:47:11.105Z,78.18
2023-12-23T07:48:11.169Z,78.04
2023-12-23T07:49:11.133Z,77.94
2023-12-23T07:50:11.135Z,77.82
2023-12-23T07:51:11.073Z,77.81
2023-12-23T07:52:11.091Z,77.67
2023-12-23T07:53:11.197Z,77.62
2023-12-23T07:54:11.115Z,77.50
2023-12-23T07:55:11.080Z,77.33
2023-12-23T07:56:11.104Z,77.31
2023-12-23T07:57:11.081Z,77.07
2023-12-23T07:58:11.082Z,76.93
2023-12-23T07:59:11.121Z,76.89
2023-12-23T08:00:11.072Z,76.77
2023-12-23T08:01:11.108Z,76.60
2023-12-23T08:02:11.125Z,76.73
2023-12-23T08:03:11.088Z,76.58
2023-12-23T08:04:11.131Z,76.50
2023-12-23T08:05:12.832Z,76.52
2023-12-23T08:06:11.184Z,76.48
2023-12-23T08:07:11.077Z,76.52
2023-12-23T08:08:11.226Z,76.54
2023-12-23T08:09:11.082Z,76.51
2023-12-23T08:10:11.084Z,76.45
2023-12-23T08:11:11.120Z,76.47
2023-12-23T08:12:11.078Z,76.52
2023-12-23T08:13:11.082Z,76.46
2023-12-23T08:14:11.133Z,76.40
2023-12-23T08:15:11.076Z,76.38
2023-12-23T08:16:11.081Z,76.41
2023-12-23T08:17:11.112Z,76.31
2023-12-23T08:18:11.240Z,76.32
2023-12-23T08:19:11.121Z,76.41
2023-12-23T08:20:11.155Z,76.35
2023-12-23T08:21:11.081Z,76.39
2023-12-23T08:22:11.087Z,76.39
2023-12-23T08:23:11.106Z,76.52
2023-12-23T08:24:11.076Z,76.44
2023-12-23T08:25:11.088Z,76.53
2023-12-23T08:26:11.125Z,76.51
2023-12-23T08:27:11.078Z,76.50
2023-12-23T08:28:11.087Z,76.33
2023-12-23T08:29:11.181Z,76.26
2023-12-23T08:30:11.150Z,76.49
2023-12-23T08:31:11.080Z,76.38
2023-12-23T08:32:11.104Z,76.40
2023-12-23T08:33:11.166Z,76.40
2023-12-23T08:34:11.103Z,76.42
2023-12-23T08:35:11.165Z,76.45
2023-12-23T08:36:11.081Z,76.40
2023-12-23T08:37:11.081Z,76.54
2023-12-23T08:38:11.121Z,76.55
2023-12-23T08:39:11.085Z,76.51
2023-12-23T08:40:11.092Z,76.53
2023-12-23T08:41:11.079Z,76.54
2023-12-23T08:42:11.094Z,76.52
2023-12-23T08:43:11.073Z,76.63
2023-12-23T08:44:11.190Z,76.82
2023-12-23T08:45:11.093Z,76.97
2023-12-23T08:46:11.076Z,76.87
2023-12-23T08:47:11.116Z,76.88
2023-12-23T08:48:11.122Z,76.86
2023-12-23T08:49:11.125Z,76.88
2023-12-23T08:50:11.142Z,76.88
2023-12-23T08:51:11.096Z,76.93
2023-12-23T08:52:11.074Z,76.82
2023-12-23T08:53:11.128Z,76.77
2023-12-23T08:54:11.084Z,76.69
2023-12-23T08:55:11.075Z,76.82
2023-12-23T08:56:11.119Z,76.72
2023-12-23T08:57:11.081Z,76.94
2023-12-23T08:58:11.078Z,76.88
2023-12-23T08:59:11.138Z,76.76
2023-12-23T09:00:11.100Z,76.76
2023-12-23T09:01:11.130Z,76.74
2023-12-23T09:02:11.156Z,76.68
2023-12-23T09:03:11.132Z,77.01
2023-12-23T09:04:11.083Z,76.83
2023-12-23T09:05:11.179Z,76.87
2023-12-23T09:06:11.135Z,76.93
2023-12-23T09:07:11.088Z,76.74
2023-12-23T09:08:11.144Z,76.77
2023-12-23T09:09:11.223Z,76.72
2023-12-23T09:10:11.085Z,76.72
2023-12-23T09:11:11.119Z,76.60
2023-12-23T09:12:11.075Z,76.76
2023-12-23T09:13:11.070Z,76.55
2023-12-23T09:14:11.161Z,76.74
2023-12-23T09:15:11.100Z,76.60
2023-12-23T09:16:11.093Z,76.48
2023-12-23T09:17:11.155Z,76.53
2023-12-23T09:18:11.168Z,76.48
2023-12-23T09:19:11.163Z,76.50
2023-12-23T09:20:11.158Z,76.43
2023-12-23T09:21:11.099Z,76.58
2023-12-23T09:22:11.079Z,76.53
2023-12-23T09:23:11.112Z,76.43
2023-12-23T09:24:11.087Z,76.43
2023-12-23T09:25:11.091Z,76.44
2023-12-23T09:26:11.136Z,76.46
2023-12-23T09:27:11.083Z,76.44
2023-12-23T09:28:11.086Z,76.52
2023-12-23T09:29:11.136Z,76.44
2023-12-23T09:30:11.110Z,76.38
2023-12-23T09:31:11.094Z,76.36
2023-12-23T09:32:11.137Z,76.34
2023-12-23T09:33:11.134Z,76.32
2023-12-23T09:34:11.127Z,76.59
2023-12-23T09:35:11.144Z,76.39
2023-12-23T09:36:11.064Z,76.35
2023-12-23T09:37:11.080Z,76.26
2023-12-23T09:38:11.089Z,76.32
2023-12-23T09:39:11.067Z,76.23
2023-12-23T09:40:11.070Z,76.16
2023-12-23T09:41:11.128Z,76.12
2023-12-23T09:42:11.097Z,76.20
2023-12-23T09:43:11.096Z,76.11
2023-12-23T09:44:11.193Z,76.18
2023-12-23T09:45:13.067Z,76.08
2023-12-23T09:46:11.083Z,76.07
2023-12-23T09:47:11.132Z,76.04
2023-12-23T09:48:11.270Z,76.05
2023-12-23T09:49:11.158Z,75.98
2023-12-23T09:50:11.106Z,75.96
2023-12-23T09:51:11.068Z,76.05
2023-12-23T09:52:11.083Z,75.94
2023-12-23T09:53:14.152Z,75.96
2023-12-23T09:54:14.110Z,75.89
2023-12-23T09:55:12.071Z,75.72
2023-12-23T09:56:11.118Z,76.08
2023-12-23T09:57:11.068Z,75.95
2023-12-23T09:58:11.072Z,76.03
2023-12-23T09:59:11.128Z,76.10
2023-12-23T10:00:11.085Z,75.95
2023-12-23T10:01:11.132Z,75.92
2023-12-23T10:02:11.097Z,75.96
2023-12-23T10:03:11.109Z,76.02
2023-12-23T10:04:11.067Z,75.95
2023-12-23T10:05:11.258Z,75.96
2023-12-23T10:06:13.140Z,75.89
2023-12-23T10:07:11.063Z,76.04
2023-12-23T10:08:11.159Z,75.87
2023-12-23T10:09:11.087Z,75.76
2023-12-23T10:10:11.068Z,75.60
2023-12-23T10:11:11.090Z,75.59
2023-12-23T10:12:11.081Z,75.75
2023-12-23T10:13:11.087Z,75.65
2023-12-23T10:14:11.104Z,75.57
2023-12-23T10:15:11.080Z,75.69
2023-12-23T10:16:11.069Z,75.72
2023-12-23T10:17:11.097Z,75.67
2023-12-23T10:18:13.172Z,75.75
2023-12-23T10:19:11.123Z,75.61
2023-12-23T10:20:11.108Z,75.61
2023-12-23T10:21:11.073Z,75.57
2023-12-23T10:22:11.088Z,75.32
2023-12-23T10:23:11.111Z,75.33
2023-12-23T10:24:11.078Z,75.34
2023-12-23T10:25:11.080Z,75.19
2023-12-23T10:26:11.097Z,75.02
2023-12-23T10:27:11.069Z,75.04
2023-12-23T10:28:11.075Z,74.81
2023-12-23T10:29:11.134Z,74.81
2023-12-23T10:30:13.140Z,74.68
2023-12-23T10:31:12.076Z,74.55
2023-12-23T10:32:12.132Z,74.55
2023-12-23T10:33:12.137Z,74.54
2023-12-23T10:34:12.205Z,74.50
2023-12-23T10:35:15.014Z,74.32
2023-12-23T10:36:12.077Z,74.19
2023-12-23T10:37:11.066Z,74.15
2023-12-23T10:38:11.102Z,74.09
2023-12-23T10:39:21.080Z,74.20
2023-12-23T10:40:18.068Z,74.00
2023-12-23T10:41:23.162Z,73.85
2023-12-23T10:42:13.083Z,73.90
2023-12-23T10:43:11.073Z,73.73
2023-12-23T10:44:11.140Z,73.76
2023-12-23T10:45:11.069Z,73.72
2023-12-23T10:46:11.097Z,73.67
2023-12-23T10:47:11.204Z,73.66
2023-12-23T10:48:11.251Z,73.59
2023-12-23T10:49:11.190Z,73.56
2023-12-23T10:50:11.141Z,73.51
2023-12-23T10:51:11.067Z,73.50
2023-12-23T10:52:11.071Z,73.65
2023-12-23T10:53:11.100Z,73.55
2023-12-23T10:54:11.071Z,73.33
2023-12-23T10:55:11.068Z,73.19
2023-12-23T10:56:13.016Z,73.22
2023-12-23T10:57:11.261Z,73.16
2023-12-23T10:58:11.071Z,72.97
2023-12-23T10:59:11.111Z,73.11
2023-12-23T11:00:11.180Z,73.12
2023-12-23T11:01:12.124Z,73.07
2023-12-23T11:02:15.124Z,73.05
2023-12-23T11:03:11.092Z,73.04
2023-12-23T11:04:11.068Z,73.33
2023-12-23T11:05:11.147Z,73.17
2023-12-23T11:06:11.154Z,73.06
2023-12-23T11:07:11.073Z,73.05
2023-12-23T11:08:17.472Z,73.02
2023-12-23T11:09:11.073Z,72.83
2023-12-23T11:10:11.075Z,72.99
2023-12-23T11:11:11.107Z,72.94
2023-12-23T11:12:11.094Z,72.99
2023-12-23T11:13:11.082Z,72.98
2023-12-23T11:14:12.120Z,72.71
2023-12-23T11:15:11.073Z,72.67
2023-12-23T11:16:15.078Z,72.55
2023-12-23T11:17:19.115Z,72.44
2023-12-23T11:18:11.429Z,72.35
2023-12-23T11:19:11.105Z,72.45
2023-12-23T11:20:15.114Z,72.30
2023-12-23T11:21:16.073Z,72.29
2023-12-23T11:22:19.083Z,72.22
2023-12-23T11:23:21.142Z,71.86
2023-12-23T11:24:19.073Z,71.70
2023-12-23T11:25:19.069Z,71.73
2023-12-23T11:26:19.127Z,71.50
2023-12-23T11:27:15.089Z,71.58
2023-12-23T11:28:11.122Z,71.57
2023-12-23T11:29:12.167Z,71.63
2023-12-23T11:30:11.183Z,71.63
2023-12-23T11:31:11.101Z,71.90
2023-12-23T11:32:15.388Z,71.61
2023-12-23T11:33:11.126Z,71.62
2023-12-23T11:34:15.219Z,71.50
2023-12-23T11:35:11.115Z,71.44
2023-12-23T11:36:11.130Z,71.46
2023-12-23T11:37:11.083Z,71.42
2023-12-23T11:38:11.117Z,71.61
2023-12-23T11:39:11.104Z,71.47
2023-12-23T11:40:12.076Z,71.40
2023-12-23T11:41:11.120Z,71.39
2023-12-23T11:42:11.088Z,71.46
2023-12-23T11:43:11.114Z,71.41
2023-12-23T11:44:11.132Z,71.49
2023-12-23T11:45:11.085Z,71.51
2023-12-23T11:46:11.074Z,71.40
2023-12-23T11:47:11.090Z,71.41
2023-12-23T11:48:11.189Z,71.55
2023-12-23T11:49:11.222Z,71.29
2023-12-23T11:50:11.136Z,71.25
2023-12-23T11:51:11.119Z,71.36
2023-12-23T11:52:11.079Z,71.53
2023-12-23T11:53:11.298Z,71.46
2023-12-23T11:54:11.132Z,71.68
2023-12-23T11:55:11.080Z,71.48
2023-12-23T11:56:11.290Z,71.45
2023-12-23T11:57:11.085Z,71.45
2023-12-23T11:58:11.094Z,71.58
2023-12-23T11:59:11.116Z,71.46
2023-12-23T12:00:11.085Z,71.83
2023-12-23T12:01:11.139Z,71.48
2023-12-23T12:02:11.128Z,71.42
2023-12-23T12:03:11.085Z,71.33
2023-12-23T12:04:11.104Z,71.24
2023-12-23T12:05:11.166Z,71.10
2023-12-23T12:06:11.333Z,71.19
2023-12-23T12:07:11.077Z,71.40
2023-12-23T12:08:11.095Z,71.32
2023-12-23T12:09:11.079Z,71.26
2023-12-23T12:10:11.085Z,71.14
2023-12-23T12:11:11.108Z,71.15
2023-12-23T12:12:11.080Z,71.11
2023-12-23T12:13:11.078Z,71.00
2023-12-23T12:14:11.109Z,70.84
2023-12-23T12:15:11.104Z,70.94
2023-12-23T12:16:11.078Z,71.12
2023-12-23T12:17:11.117Z,70.94
2023-12-23T12:18:11.203Z,71.17
2023-12-23T12:19:11.208Z,71.08
2023-12-23T12:20:11.102Z,71.15
2023-12-23T12:21:11.081Z,71.09
2023-12-23T12:22:11.090Z,71.18
2023-12-23T12:23:11.119Z,71.07
2023-12-23T12:24:11.085Z,70.97
2023-12-23T12:25:11.095Z,71.03
2023-12-23T12:26:11.119Z,71.03
2023-12-23T12:27:11.082Z,70.73
2023-12-23T12:28:11.084Z,70.89
2023-12-23T12:29:11.102Z,70.85
2023-12-23T12:30:11.115Z,70.95
2023-12-23T12:31:11.068Z,70.92
2023-12-23T12:32:13.080Z,70.75
2023-12-23T12:33:12.143Z,70.74
2023-12-23T12:34:12.128Z,70.62
2023-12-23T12:35:12.124Z,70.66
2023-12-23T12:36:14.063Z,70.52
2023-12-23T12:37:11.069Z,70.56
2023-12-23T12:38:17.372Z,70.69
2023-12-23T12:39:13.108Z,70.72
2023-12-23T12:40:13.067Z,70.70
2023-12-23T12:41:11.104Z,70.68
2023-12-23T12:42:11.075Z,70.95
2023-12-23T12:43:12.068Z,70.76
2023-12-23T12:44:11.084Z,70.60
2023-12-23T12:45:11.077Z,70.76
2023-12-23T12:46:11.072Z,70.43
2023-12-23T12:47:11.102Z,70.50
2023-12-23T12:48:15.129Z,70.71
2023-12-23T12:49:11.156Z,70.54
2023-12-23T12:50:11.136Z,70.64
2023-12-23T12:51:11.091Z,70.71
2023-12-23T12:52:11.086Z,70.64